createdAt,value
2019-06-08T00:00:27.155Z,13.40
2019-06-08T00:01:27.147Z,13.50
2019-06-08T00:02:27.132Z,13.30
2019-06-08T00:03:38.856Z,13.00
2019-06-08T00:04:27.264Z,13.00
2019-06-08T00:05:27.104Z,12.80
2019-06-08T00:06:27.094Z,12.80
2019-06-08T00:07:27.087Z,13.10
2019-06-08T00:08:27.165Z,12.10
2019-06-08T00:09:27.056Z,13.20
2019-06-08T00:10:27.053Z,13.40
2019-06-08T00:11:27.047Z,13.30
2019-06-08T00:12:27.046Z,13.80
2019-06-08T00:13:27.011Z,13.10
2019-06-08T00:14:27.015Z,14.20
2019-06-08T00:15:27.008Z,13.30
2019-06-08T00:16:26.980Z,13.60
2019-06-08T00:17:37.771Z,13.00
2019-06-08T00:18:27.961Z,13.60
2019-06-08T00:19:26.969Z,13.50
2019-06-08T00:20:26.938Z,13.60
2019-06-08T00:21:26.940Z,14.00
2019-06-08T00:22:26.927Z,14.10
2019-06-08T00:23:26.898Z,13.30
2019-06-08T00:24:26.935Z,13.70
2019-06-08T00:25:26.894Z,13.90
2019-06-08T00:26:26.950Z,14.00
2019-06-08T00:27:26.897Z,13.70
2019-06-08T00:28:26.853Z,13.70
2019-06-08T00:29:26.872Z,14.00
2019-06-08T00:30:26.863Z,13.30
2019-06-08T00:31:26.815Z,14.10
2019-06-08T00:32:26.799Z,14.00
2019-06-08T00:33:26.792Z,14.00
2019-06-08T00:34:38.545Z,14.00
2019-06-08T00:35:26.775Z,14.50
2019-06-08T00:36:26.758Z,15.00
2019-06-08T00:37:26.744Z,14.30
2019-06-08T00:38:26.730Z,14.70
2019-06-08T00:39:26.721Z,14.00
2019-06-08T00:40:26.750Z,13.90
2019-06-08T00:41:26.697Z,14.00
2019-06-08T00:42:26.702Z,14.40
2019-06-08T00:43:26.677Z,14.60
2019-06-08T00:44:26.675Z,14.40
2019-06-08T00:45:26.684Z,14.20
2019-06-08T00:46:26.656Z,14.30
2019-06-08T00:47:26.920Z,14.20
2019-06-08T00:48:28.732Z,13.70
2019-06-08T00:49:26.629Z,14.20
2019-06-08T00:50:26.605Z,14.00
2019-06-08T00:51:26.660Z,13.50
2019-06-08T00:52:26.836Z,14.50
2019-06-08T00:53:26.570Z,14.10
2019-06-08T00:54:26.561Z,13.60
2019-06-08T00:55:26.545Z,13.60
2019-06-08T00:56:26.533Z,14.50
2019-06-08T00:57:26.550Z,14.40
2019-06-08T00:58:26.546Z,14.50
2019-06-08T00:59:26.499Z,14.80
2019-06-08T01:00:26.859Z,14.50
2019-06-08T01:01:28.153Z,14.50
2019-06-08T01:02:26.805Z,14.30
2019-06-08T01:03:26.459Z,13.70
2019-06-08T01:04:27.149Z,14.40
2019-06-08T01:05:38.413Z,15.00
2019-06-08T01:06:27.550Z,14.00
2019-06-08T01:07:26.417Z,14.30
2019-06-08T01:08:27.480Z,13.60
2019-06-08T01:09:26.413Z,14.00
2019-06-08T01:10:27.555Z,13.70
2019-06-08T01:11:26.929Z,14.40
2019-06-08T01:12:26.798Z,13.90
2019-06-08T01:13:26.927Z,15.20
2019-06-08T01:14:27.077Z,13.60
2019-06-08T01:15:32.177Z,14.70
2019-06-08T01:16:27.312Z,14.40
2019-06-08T01:17:27.506Z,14.70
2019-06-08T01:18:27.455Z,13.90
2019-06-08T01:19:27.431Z,14.20
2019-06-08T01:20:27.379Z,13.80
2019-06-08T01:21:27.576Z,15.30
2019-06-08T01:22:27.630Z,14.90
2019-06-08T01:23:27.776Z,14.90
2019-06-08T01:24:26.251Z,14.00
2019-06-08T01:25:26.214Z,14.00
2019-06-08T01:26:26.194Z,14.70
2019-06-08T01:27:26.187Z,13.90
2019-06-08T01:28:26.235Z,14.00
2019-06-08T01:29:26.342Z,15.10
2019-06-08T01:30:26.430Z,14.40
2019-06-08T01:31:26.577Z,15.00
2019-06-08T01:32:26.429Z,15.00
2019-06-08T01:33:26.582Z,14.80
2019-06-08T01:34:27.027Z,14.70
2019-06-08T01:35:26.934Z,15.40
2019-06-08T01:36:37.697Z,16.00
2019-06-08T01:37:27.010Z,15.30
2019-06-08T01:38:27.184Z,15.90
2019-06-08T01:39:27.222Z,15.40
2019-06-08T01:40:27.356Z,15.00
2019-06-08T01:41:27.354Z,16.80
2019-06-08T01:42:26.029Z,16.10
2019-06-08T01:43:26.018Z,14.90
2019-06-08T01:44:26.042Z,15.50
2019-06-08T01:45:25.981Z,15.80
2019-06-08T01:46:25.983Z,15.70
2019-06-08T01:47:26.227Z,15.20
2019-06-08T01:48:26.232Z,15.70
2019-06-08T01:49:26.258Z,15.70
2019-06-08T01:50:26.438Z,16.10
2019-06-08T01:51:26.565Z,15.50
2019-06-08T01:52:26.619Z,16.10
2019-06-08T01:53:26.859Z,16.30
2019-06-08T01:54:26.910Z,15.50
2019-06-08T01:55:27.031Z,16.20
2019-06-08T01:56:27.041Z,15.80
2019-06-08T01:57:27.129Z,16.00
2019-06-08T01:58:25.872Z,15.90
2019-06-08T01:59:25.858Z,16.70
2019-06-08T02:00:30.720Z,16.70
2019-06-08T02:01:27.776Z,16.50
2019-06-08T02:02:25.975Z,16.40
2019-06-08T02:03:26.264Z,16.50
2019-06-08T02:04:26.072Z,16.00
2019-06-08T02:05:26.130Z,16.40
2019-06-08T02:06:26.156Z,15.80
2019-06-08T02:07:38.024Z,15.20
2019-06-08T02:08:26.568Z,16.10
2019-06-08T02:09:26.519Z,15.80
2019-06-08T02:10:26.626Z,15.60
2019-06-08T02:11:26.707Z,16.40
2019-06-08T02:12:26.718Z,14.90
2019-06-08T02:13:26.863Z,15.00
2019-06-08T02:14:27.039Z,15.10
2019-06-08T02:15:27.090Z,15.90
2019-06-08T02:16:25.752Z,16.40
2019-06-08T02:17:25.683Z,15.20
2019-06-08T02:18:36.500Z,14.80
2019-06-08T02:19:26.658Z,15.90
2019-06-08T02:20:26.358Z,15.70
2019-06-08T02:21:26.750Z,15.30
2019-06-08T02:22:26.687Z,15.40
2019-06-08T02:23:26.912Z,16.10
2019-06-08T02:24:25.561Z,16.20
2019-06-08T02:25:25.537Z,16.50
2019-06-08T02:26:27.567Z,16.30
2019-06-08T02:27:25.520Z,16.80
2019-06-08T02:28:25.519Z,16.00
2019-06-08T02:29:25.522Z,17.30
2019-06-08T02:30:25.480Z,17.90
2019-06-08T02:31:25.467Z,16.90
2019-06-08T02:32:25.474Z,18.70
2019-06-08T02:33:25.463Z,19.30
2019-06-08T02:34:25.448Z,17.60
2019-06-08T02:35:25.424Z,18.90
2019-06-08T02:36:25.414Z,19.50
2019-06-08T02:37:25.402Z,18.20
2019-06-08T02:38:39.507Z,18.10
2019-06-08T02:39:25.474Z,19.60
2019-06-08T02:40:25.371Z,19.00
2019-06-08T02:41:25.377Z,20.20
2019-06-08T02:42:25.362Z,19.90
2019-06-08T02:43:25.343Z,19.60
2019-06-08T02:44:25.368Z,19.80
2019-06-08T02:45:25.328Z,19.40
2019-06-08T02:46:25.316Z,20.30
2019-06-08T02:47:25.307Z,19.80
2019-06-08T02:48:25.293Z,20.80
2019-06-08T02:49:25.285Z,20.80
2019-06-08T02:50:25.282Z,19.90
2019-06-08T02:51:25.264Z,20.20
2019-06-08T02:52:25.246Z,21.20
2019-06-08T02:53:25.234Z,21.30
2019-06-08T02:54:25.285Z,21.60
2019-06-08T02:55:25.217Z,20.70
2019-06-08T02:56:25.207Z,20.70
2019-06-08T02:57:25.192Z,19.80
2019-06-08T02:58:25.187Z,20.90
2019-06-08T02:59:25.163Z,21.20
2019-06-08T03:00:25.162Z,20.60
2019-06-08T03:01:25.157Z,21.70
2019-06-08T03:02:25.150Z,20.70
2019-06-08T03:03:25.123Z,21.20
2019-06-08T03:04:25.123Z,20.90
2019-06-08T03:05:25.154Z,20.70
2019-06-08T03:06:25.094Z,21.70
2019-06-08T03:07:25.089Z,21.50
2019-06-08T03:08:25.093Z,21.60
2019-06-08T03:09:36.598Z,20.80
2019-06-08T03:10:25.053Z,20.40
2019-06-08T03:11:25.049Z,21.50
2019-06-08T03:12:25.043Z,22.10
2019-06-08T03:13:25.023Z,22.00
2019-06-08T03:14:25.014Z,21.70
2019-06-08T03:15:25.011Z,21.20
2019-06-08T03:16:25.039Z,21.30
2019-06-08T03:17:24.980Z,21.30
2019-06-08T03:18:24.977Z,21.00
2019-06-08T03:19:24.957Z,19.90
2019-06-08T03:20:24.950Z,20.50
2019-06-08T03:21:24.952Z,21.00
2019-06-08T03:22:24.965Z,20.30
2019-06-08T03:23:24.914Z,20.80
2019-06-08T03:24:24.915Z,20.60
2019-06-08T03:25:24.891Z,21.10
2019-06-08T03:26:24.885Z,19.90
2019-06-08T03:27:24.881Z,20.50
2019-06-08T03:28:24.884Z,20.60
2019-06-08T03:29:24.856Z,20.60
2019-06-08T03:30:24.838Z,21.10
2019-06-08T03:31:24.841Z,20.80
2019-06-08T03:32:24.828Z,20.10
2019-06-08T03:33:24.823Z,21.40
2019-06-08T03:34:24.860Z,20.50
2019-06-08T03:35:24.799Z,21.40
2019-06-08T03:36:24.848Z,21.30
2019-06-08T03:37:24.767Z,20.20
2019-06-08T03:38:24.774Z,20.90
2019-06-08T03:39:24.758Z,21.50
2019-06-08T03:40:38.189Z,20.20
2019-06-08T03:41:24.732Z,21.00
2019-06-08T03:42:24.759Z,21.20
2019-06-08T03:43:24.713Z,21.00
2019-06-08T03:44:24.702Z,21.80
2019-06-08T03:45:24.690Z,21.70
2019-06-08T03:46:24.676Z,22.00
2019-06-08T03:47:24.666Z,22.50
2019-06-08T03:48:24.674Z,22.10
2019-06-08T03:49:41.025Z,22.40
2019-06-08T03:50:25.634Z,21.30
2019-06-08T03:51:24.624Z,21.60
2019-06-08T03:52:24.639Z,21.10
2019-06-08T03:53:24.655Z,20.50
2019-06-08T03:54:24.600Z,21.50
2019-06-08T03:55:24.585Z,20.80
2019-06-08T03:56:24.582Z,21.80
2019-06-08T03:57:24.565Z,20.60
2019-06-08T03:58:24.565Z,21.00
2019-06-08T03:59:24.596Z,20.90
2019-06-08T04:00:24.542Z,20.80
2019-06-08T04:01:24.530Z,20.80
2019-06-08T04:02:24.544Z,20.20
2019-06-08T04:03:24.511Z,19.70
2019-06-08T04:04:24.549Z,19.90
2019-06-08T04:05:24.508Z,20.80
2019-06-08T04:06:24.474Z,20.70
2019-06-08T04:07:24.472Z,20.30
2019-06-08T04:08:24.460Z,19.40
2019-06-08T04:09:24.470Z,19.50
2019-06-08T04:10:24.448Z,20.20
2019-06-08T04:11:37.719Z,19.40
2019-06-08T04:12:24.416Z,19.70
2019-06-08T04:13:24.410Z,20.10
2019-06-08T04:14:24.430Z,19.20
2019-06-08T04:15:24.392Z,19.60
2019-06-08T04:16:24.376Z,19.20
2019-06-08T04:17:24.366Z,20.20
2019-06-08T04:18:24.358Z,19.90
2019-06-08T04:19:24.353Z,18.90
2019-06-08T04:20:24.345Z,18.60
2019-06-08T04:21:24.322Z,19.70
2019-06-08T04:22:24.316Z,19.00
2019-06-08T04:23:24.317Z,18.90
2019-06-08T04:24:24.294Z,19.20
2019-06-08T04:25:24.296Z,19.50
2019-06-08T04:26:24.323Z,19.90
2019-06-08T04:27:24.269Z,19.50
2019-06-08T04:28:24.255Z,18.80
2019-06-08T04:29:24.254Z,20.30
2019-06-08T04:30:24.287Z,19.70
2019-06-08T04:31:24.237Z,20.10
2019-06-08T04:32:24.222Z,18.20
2019-06-08T04:33:24.208Z,19.30
2019-06-08T04:34:24.198Z,19.50
2019-06-08T04:35:24.193Z,18.60
2019-06-08T04:36:24.197Z,19.20
2019-06-08T04:37:24.171Z,18.70
2019-06-08T04:38:24.171Z,18.40
2019-06-08T04:39:24.154Z,18.90
2019-06-08T04:40:24.146Z,18.80
2019-06-08T04:41:24.145Z,19.10
2019-06-08T04:42:36.625Z,18.10
2019-06-08T04:43:24.121Z,18.20
2019-06-08T04:44:24.103Z,19.00
2019-06-08T04:45:24.097Z,19.50
2019-06-08T04:46:24.090Z,18.50
2019-06-08T04:47:24.083Z,18.40
2019-06-08T04:48:24.070Z,18.00
2019-06-08T04:49:24.060Z,17.90
2019-06-08T04:50:24.455Z,18.60
2019-06-08T04:51:24.047Z,18.50
2019-06-08T04:52:24.037Z,18.90
2019-06-08T04:53:24.021Z,18.80
2019-06-08T04:54:24.023Z,18.30
2019-06-08T04:55:24.006Z,18.20
2019-06-08T04:56:24.026Z,19.10
2019-06-08T04:57:23.987Z,19.00
2019-06-08T04:58:23.970Z,17.70
2019-06-08T04:59:23.971Z,18.60
2019-06-08T05:00:23.950Z,18.30
2019-06-08T05:01:23.943Z,17.70
2019-06-08T05:02:23.963Z,18.90
2019-06-08T05:03:23.925Z,18.10
2019-06-08T05:04:23.925Z,17.50
2019-06-08T05:05:23.904Z,17.30
2019-06-08T05:06:23.896Z,17.90
2019-06-08T05:07:23.880Z,18.00
2019-06-08T05:08:23.890Z,17.60
2019-06-08T05:09:23.879Z,16.60
2019-06-08T05:10:23.858Z,16.00
2019-06-08T05:11:23.844Z,16.00
2019-06-08T05:12:23.833Z,16.90
2019-06-08T05:13:36.233Z,16.40
2019-06-08T05:14:23.822Z,16.10
2019-06-08T05:15:23.804Z,16.60
2019-06-08T05:16:23.801Z,17.30
2019-06-08T05:17:23.788Z,16.80
2019-06-08T05:18:26.112Z,16.10
2019-06-08T05:19:23.767Z,16.00
2019-06-08T05:20:37.674Z,16.10
2019-06-08T05:21:24.750Z,15.80
2019-06-08T05:22:23.756Z,16.20
2019-06-08T05:23:23.731Z,16.80
2019-06-08T05:24:23.729Z,16.30
2019-06-08T05:25:23.723Z,16.10
2019-06-08T05:26:23.712Z,15.90
2019-06-08T05:27:23.700Z,16.10
2019-06-08T05:28:23.689Z,15.70
2019-06-08T05:29:23.708Z,15.00
2019-06-08T05:30:23.664Z,15.60
2019-06-08T05:31:23.696Z,15.70
2019-06-08T05:32:23.642Z,15.60
2019-06-08T05:33:23.648Z,15.50
2019-06-08T05:34:23.628Z,15.50
2019-06-08T05:35:23.624Z,16.20
2019-06-08T05:36:23.607Z,15.50
2019-06-08T05:37:23.591Z,15.30
2019-06-08T05:38:23.597Z,15.00
2019-06-08T05:39:23.579Z,16.00
2019-06-08T05:40:23.571Z,15.60
2019-06-08T05:41:24.287Z,16.80
2019-06-08T05:42:23.553Z,16.50
2019-06-08T05:43:23.536Z,15.40
2019-06-08T05:44:35.521Z,16.00
2019-06-08T05:45:23.525Z,15.70
2019-06-08T05:46:23.504Z,15.40
2019-06-08T05:47:23.494Z,16.00
2019-06-08T05:48:23.513Z,16.50
2019-06-08T05:49:23.499Z,15.90
2019-06-08T05:50:23.507Z,15.70
2019-06-08T05:51:23.457Z,16.20
2019-06-08T05:52:23.458Z,15.90
2019-06-08T05:53:23.438Z,16.10
2019-06-08T05:54:23.426Z,16.50
2019-06-08T05:55:23.437Z,15.30
2019-06-08T05:56:23.418Z,16.10
2019-06-08T05:57:23.406Z,15.30
2019-06-08T05:58:23.410Z,16.00
2019-06-08T05:59:23.379Z,15.00
2019-06-08T06:00:23.374Z,16.10
2019-06-08T06:01:23.372Z,15.00
2019-06-08T06:02:24.267Z,14.80
2019-06-08T06:03:23.348Z,15.00
2019-06-08T06:04:23.333Z,15.40
2019-06-08T06:05:23.327Z,15.20
2019-06-08T06:06:23.325Z,14.40
2019-06-08T06:07:23.314Z,15.00
2019-06-08T06:08:23.300Z,15.10
2019-06-08T06:09:23.314Z,16.00
2019-06-08T06:10:23.287Z,15.70
2019-06-08T06:11:23.268Z,16.00
2019-06-08T06:12:23.273Z,16.00
2019-06-08T06:13:23.254Z,16.70
2019-06-08T06:14:23.242Z,16.40
2019-06-08T06:15:35.077Z,16.10
2019-06-08T06:16:23.224Z,17.10
2019-06-08T06:17:23.215Z,17.10
2019-06-08T06:18:23.195Z,16.80
2019-06-08T06:19:23.191Z,16.20
2019-06-08T06:20:23.177Z,16.20
2019-06-08T06:21:23.169Z,15.90
2019-06-08T06:22:23.167Z,16.50
2019-06-08T06:23:23.154Z,15.90
2019-06-08T06:24:23.153Z,15.40
2019-06-08T06:25:23.128Z,14.90
2019-06-08T06:26:23.123Z,15.50
2019-06-08T06:27:23.115Z,15.40
2019-06-08T06:28:23.114Z,14.50
2019-06-08T06:29:23.092Z,15.10
2019-06-08T06:30:23.080Z,15.30
2019-06-08T06:31:23.077Z,14.80
2019-06-08T06:32:23.099Z,15.10
2019-06-08T06:33:23.061Z,15.00
2019-06-08T06:34:23.037Z,14.40
2019-06-08T06:35:23.033Z,14.30
2019-06-08T06:36:23.019Z,13.60
2019-06-08T06:37:23.013Z,13.70
2019-06-08T06:38:23.005Z,13.00
2019-06-08T06:39:22.986Z,13.80
2019-06-08T06:40:22.984Z,13.70
2019-06-08T06:41:22.964Z,14.20
2019-06-08T06:42:25.032Z,13.50
2019-06-08T06:43:22.957Z,14.00
2019-06-08T06:44:22.944Z,14.00
2019-06-08T06:45:22.926Z,14.00
2019-06-08T06:46:34.900Z,13.80
2019-06-08T06:47:22.901Z,14.00
2019-06-08T06:48:23.735Z,14.60
2019-06-08T06:49:22.883Z,14.20
2019-06-08T06:50:22.871Z,14.60
2019-06-08T06:51:26.526Z,14.20
2019-06-08T06:52:22.854Z,15.00
2019-06-08T06:53:22.845Z,13.70
2019-06-08T06:54:22.831Z,14.50
2019-06-08T06:55:25.341Z,13.60
2019-06-08T06:56:22.817Z,14.10
2019-06-08T06:57:22.799Z,13.30
2019-06-08T06:58:22.824Z,13.60
2019-06-08T06:59:22.800Z,14.20
2019-06-08T07:00:22.765Z,14.00
2019-06-08T07:01:22.761Z,13.90
2019-06-08T07:02:22.748Z,13.90
2019-06-08T07:03:22.743Z,13.50
2019-06-08T07:04:22.762Z,13.60
2019-06-08T07:05:22.720Z,13.40
2019-06-08T07:06:22.708Z,12.80
2019-06-08T07:07:22.729Z,12.50
2019-06-08T07:08:22.791Z,12.10
2019-06-08T07:09:22.686Z,11.70
2019-06-08T07:10:22.667Z,10.80
2019-06-08T07:11:22.652Z,10.90
2019-06-08T07:12:22.643Z,10.60
2019-06-08T07:13:22.660Z,10.70
2019-06-08T07:14:22.656Z,10.90
2019-06-08T07:15:22.604Z,10.90
2019-06-08T07:16:22.601Z,10.30
2019-06-08T07:17:33.999Z,9.80
2019-06-08T07:18:22.580Z,9.70
2019-06-08T07:19:22.563Z,9.50
2019-06-08T07:20:22.556Z,9.30
2019-06-08T07:21:22.542Z,10.10
2019-06-08T07:22:22.526Z,9.70
2019-06-08T07:23:22.521Z,9.80
2019-06-08T07:24:22.525Z,9.40
2019-06-08T07:25:22.499Z,9.00
2019-06-08T07:26:22.494Z,8.80
2019-06-08T07:27:22.481Z,8.50
2019-06-08T07:28:22.468Z,8.90
2019-06-08T07:29:22.469Z,8.60
2019-06-08T07:30:22.490Z,8.10
2019-06-08T07:31:22.429Z,8.60
2019-06-08T07:32:22.424Z,8.20
2019-06-08T07:33:22.421Z,8.50
2019-06-08T07:34:22.421Z,8.60
2019-06-08T07:35:22.385Z,8.20
2019-06-08T07:36:22.389Z,8.20
2019-06-08T07:37:22.369Z,8.20
2019-06-08T07:38:22.361Z,8.00
2019-06-08T07:39:22.341Z,8.00
2019-06-08T07:40:22.355Z,8.00
2019-06-08T07:41:22.342Z,7.90
2019-06-08T07:42:22.315Z,7.50
2019-06-08T07:43:22.306Z,7.70
2019-06-08T07:44:22.292Z,7.20
2019-06-08T07:45:22.280Z,7.70
2019-06-08T07:46:22.276Z,8.40
2019-06-08T07:47:22.255Z,7.70
2019-06-08T07:48:34.725Z,7.20
2019-06-08T07:49:22.238Z,7.60
2019-06-08T07:50:22.229Z,7.70
2019-06-08T07:51:22.237Z,7.50
2019-06-08T07:52:22.214Z,7.70
2019-06-08T07:53:22.192Z,7.50
2019-06-08T07:54:22.192Z,7.00
2019-06-08T07:55:22.168Z,7.50
2019-06-08T07:56:22.157Z,7.50
2019-06-08T07:57:22.170Z,7.10
2019-06-08T07:58:22.134Z,7.20
2019-06-08T07:59:22.137Z,6.50
2019-06-08T08:00:22.128Z,7.10
2019-06-08T08:01:35.374Z,6.70
2019-06-08T08:02:23.113Z,7.30
2019-06-08T08:03:22.090Z,6.90
2019-06-08T08:04:22.070Z,7.50
2019-06-08T08:05:22.060Z,6.60
2019-06-08T08:06:22.074Z,7.30
2019-06-08T08:07:22.045Z,7.40
2019-06-08T08:08:22.037Z,6.90
2019-06-08T08:09:22.029Z,6.40
2019-06-08T08:10:22.013Z,6.70
2019-06-08T08:11:22.004Z,6.80
2019-06-08T08:12:22.005Z,6.60
2019-06-08T08:13:21.981Z,6.20
2019-06-08T08:14:21.970Z,6.30
2019-06-08T08:15:21.962Z,6.90
2019-06-08T08:16:21.941Z,7.00
2019-06-08T08:17:21.939Z,6.70
2019-06-08T08:18:21.931Z,6.20
2019-06-08T08:19:34.109Z,6.00
2019-06-08T08:20:21.905Z,5.80
2019-06-08T08:21:25.882Z,5.90
2019-06-08T08:22:25.991Z,5.70
2019-06-08T08:23:21.871Z,6.50
2019-06-08T08:24:21.858Z,6.30
2019-06-08T08:25:21.850Z,6.00
2019-06-08T08:26:21.836Z,5.90
2019-06-08T08:27:21.838Z,5.60
2019-06-08T08:28:21.832Z,5.60
2019-06-08T08:29:21.802Z,5.40
2019-06-08T08:30:21.796Z,5.60
2019-06-08T08:31:21.807Z,5.90
2019-06-08T08:32:21.795Z,5.50
2019-06-08T08:33:21.759Z,5.10
2019-06-08T08:34:21.762Z,5.90
2019-06-08T08:35:21.735Z,6.00
2019-06-08T08:36:21.725Z,5.50
2019-06-08T08:37:22.025Z,5.60
2019-06-08T08:38:21.719Z,5.70
2019-06-08T08:39:21.693Z,5.30
2019-06-08T08:40:21.689Z,5.30
2019-06-08T08:41:21.680Z,5.10
2019-06-08T08:42:21.664Z,5.20
2019-06-08T08:43:23.129Z,5.40
2019-06-08T08:44:21.668Z,5.40
2019-06-08T08:45:21.628Z,5.80
2019-06-08T08:46:21.625Z,4.90
2019-06-08T08:47:21.612Z,5.30
2019-06-08T08:48:27.577Z,5.60
2019-06-08T08:49:22.588Z,5.20
2019-06-08T08:50:34.064Z,5.10
2019-06-08T08:51:21.566Z,5.60
2019-06-08T08:52:33.630Z,4.80
2019-06-08T08:53:22.587Z,5.40
2019-06-08T08:54:21.532Z,5.00
2019-06-08T08:55:21.520Z,5.50
2019-06-08T08:56:21.524Z,5.50
2019-06-08T08:57:21.505Z,4.90
2019-06-08T08:58:21.490Z,5.20
2019-06-08T08:59:21.490Z,4.70
2019-06-08T09:00:21.475Z,5.30
2019-06-08T09:01:21.462Z,5.20
2019-06-08T09:02:21.567Z,5.30
2019-06-08T09:03:28.891Z,5.50
2019-06-08T09:04:22.433Z,5.50
2019-06-08T09:05:21.447Z,5.20
2019-06-08T09:06:21.418Z,5.10
2019-06-08T09:07:21.398Z,5.30
2019-06-08T09:08:23.369Z,4.70
2019-06-08T09:09:21.794Z,5.00
2019-06-08T09:10:21.364Z,4.70
2019-06-08T09:11:21.352Z,4.80
2019-06-08T09:12:21.382Z,4.40
2019-06-08T09:13:21.333Z,4.40
2019-06-08T09:14:21.368Z,4.20
2019-06-08T09:15:21.314Z,5.20
2019-06-08T09:16:21.298Z,4.80
2019-06-08T09:17:21.297Z,4.70
2019-06-08T09:18:21.287Z,4.40
2019-06-08T09:19:21.267Z,3.90
2019-06-08T09:20:21.300Z,4.10
2019-06-08T09:21:33.873Z,4.30
2019-06-08T09:22:21.244Z,4.10
2019-06-08T09:23:21.962Z,4.10
2019-06-08T09:24:21.213Z,4.00
2019-06-08T09:25:21.207Z,4.00
2019-06-08T09:26:21.213Z,4.10
2019-06-08T09:27:21.201Z,4.20
2019-06-08T09:28:21.176Z,4.20
2019-06-08T09:29:21.205Z,3.70
2019-06-08T09:30:21.186Z,4.10
2019-06-08T09:31:21.156Z,4.10
2019-06-08T09:32:21.132Z,3.80
2019-06-08T09:33:21.124Z,3.80
2019-06-08T09:34:21.212Z,4.00
2019-06-08T09:35:21.523Z,4.50
2019-06-08T09:36:21.088Z,4.20
2019-06-08T09:37:21.082Z,3.60
2019-06-08T09:38:21.074Z,4.00
2019-06-08T09:39:21.051Z,3.80
2019-06-08T09:40:21.048Z,4.20
2019-06-08T09:41:21.046Z,4.10
2019-06-08T09:42:21.378Z,3.50
2019-06-08T09:43:21.124Z,4.10
2019-06-08T09:44:20.999Z,3.90
2019-06-08T09:45:21.008Z,3.90
2019-06-08T09:46:21.007Z,3.70
2019-06-08T09:47:20.966Z,3.90
2019-06-08T09:48:20.980Z,3.90
2019-06-08T09:49:20.971Z,3.80
2019-06-08T09:50:20.943Z,4.20
2019-06-08T09:51:20.927Z,4.10
2019-06-08T09:52:33.624Z,3.80
2019-06-08T09:53:28.449Z,4.10
2019-06-08T09:54:21.912Z,3.90
2019-06-08T09:55:20.888Z,3.70
2019-06-08T09:56:20.890Z,4.10
2019-06-08T09:57:20.856Z,3.90
2019-06-08T09:58:20.859Z,4.20
2019-06-08T09:59:20.892Z,3.70
2019-06-08T10:00:25.289Z,3.70
2019-06-08T10:01:20.820Z,3.90
2019-06-08T10:02:20.808Z,3.80
2019-06-08T10:03:20.814Z,3.80
2019-06-08T10:04:20.847Z,3.80
2019-06-08T10:05:20.784Z,3.90
2019-06-08T10:06:20.772Z,3.70
2019-06-08T10:07:20.773Z,4.60
2019-06-08T10:08:20.974Z,3.30
2019-06-08T10:09:20.733Z,3.70
2019-06-08T10:10:20.720Z,3.80
2019-06-08T10:11:20.743Z,3.60
2019-06-08T10:12:20.723Z,3.30
2019-06-08T10:13:20.683Z,3.50
2019-06-08T10:14:20.681Z,3.70
2019-06-08T10:15:20.666Z,4.10
2019-06-08T10:16:20.666Z,3.80
2019-06-08T10:17:21.025Z,3.50
2019-06-08T10:18:20.645Z,3.70
2019-06-08T10:19:20.636Z,3.50
2019-06-08T10:20:20.608Z,3.50
2019-06-08T10:21:21.165Z,3.50
2019-06-08T10:22:20.603Z,3.70
2019-06-08T10:23:34.583Z,3.60
2019-06-08T10:24:20.586Z,3.60
2019-06-08T10:25:20.559Z,3.70
2019-06-08T10:26:20.548Z,3.90
2019-06-08T10:27:20.535Z,3.80
2019-06-08T10:28:21.786Z,3.90
2019-06-08T10:29:20.533Z,4.30
2019-06-08T10:30:20.505Z,3.50
2019-06-08T10:31:33.196Z,3.60
2019-06-08T10:32:21.524Z,3.70
2019-06-08T10:33:20.499Z,3.60
2019-06-08T10:34:20.461Z,3.60
2019-06-08T10:35:20.955Z,3.80
2019-06-08T10:36:20.441Z,3.80
2019-06-08T10:37:20.423Z,3.20
2019-06-08T10:38:20.438Z,3.70
2019-06-08T10:39:20.411Z,3.30
2019-06-08T10:40:20.395Z,3.40
2019-06-08T10:41:21.818Z,3.60
2019-06-08T10:42:20.386Z,3.40
2019-06-08T10:43:20.366Z,3.30
2019-06-08T10:44:20.415Z,3.70
2019-06-08T10:45:20.357Z,3.50
2019-06-08T10:46:21.032Z,3.30
2019-06-08T10:47:20.318Z,3.80
2019-06-08T10:48:20.310Z,3.10
2019-06-08T10:49:20.371Z,3.50
2019-06-08T10:50:20.359Z,3.20
2019-06-08T10:51:20.303Z,3.20
2019-06-08T10:52:20.440Z,3.80
2019-06-08T10:53:20.263Z,3.50
2019-06-08T10:54:32.428Z,3.80
2019-06-08T10:55:20.239Z,3.70
2019-06-08T10:56:20.230Z,3.40
2019-06-08T10:57:20.208Z,3.50
2019-06-08T10:58:20.199Z,3.90
2019-06-08T10:59:20.185Z,3.50
2019-06-08T11:00:23.919Z,3.70
2019-06-08T11:01:20.169Z,3.50
2019-06-08T11:02:20.154Z,3.70
2019-06-08T11:03:20.144Z,4.10
2019-06-08T11:04:20.127Z,3.60
2019-06-08T11:05:20.153Z,3.70
2019-06-08T11:06:20.116Z,3.10
2019-06-08T11:07:20.102Z,3.70
2019-06-08T11:08:20.092Z,3.40
2019-06-08T11:09:20.170Z,3.50
2019-06-08T11:10:20.084Z,3.90
2019-06-08T11:11:20.629Z,3.80
2019-06-08T11:12:20.062Z,3.30
2019-06-08T11:13:20.033Z,3.80
2019-06-08T11:14:22.653Z,3.90
2019-06-08T11:15:20.020Z,3.60
2019-06-08T11:16:20.005Z,3.70
2019-06-08T11:17:20.011Z,3.50
2019-06-08T11:18:19.993Z,3.20
2019-06-08T11:19:19.966Z,3.90
2019-06-08T11:20:19.965Z,3.30
2019-06-08T11:21:19.985Z,3.40
2019-06-08T11:22:19.937Z,3.60
2019-06-08T11:23:19.927Z,3.90
2019-06-08T11:24:24.636Z,3.50
2019-06-08T11:26:39.772Z,3.70
2019-06-08T11:27:38.654Z,3.80
2019-06-08T11:28:35.077Z,3.50
2019-06-08T11:29:35.098Z,4.40
2019-06-08T11:30:35.097Z,3.70
2019-06-08T11:31:35.041Z,3.90
2019-06-08T11:32:35.077Z,3.70
2019-06-08T11:33:35.034Z,3.80
2019-06-08T11:34:37.503Z,3.60
2019-06-08T11:35:35.001Z,3.70
2019-06-08T11:36:35.000Z,3.70
2019-06-08T11:37:34.978Z,3.40
2019-06-08T11:38:34.988Z,3.90
2019-06-08T11:39:34.970Z,3.50
2019-06-08T11:40:34.946Z,3.50
2019-06-08T11:41:34.948Z,3.60
2019-06-08T11:42:34.962Z,3.30
2019-06-08T11:43:34.916Z,3.60
2019-06-08T11:44:34.913Z,3.10
2019-06-08T11:45:35.763Z,3.60
2019-06-08T11:46:34.885Z,3.90
2019-06-08T11:47:34.903Z,3.60
2019-06-08T11:48:37.936Z,3.70
2019-06-08T11:49:34.976Z,3.60
2019-06-08T11:50:34.839Z,3.80
2019-06-08T11:51:37.695Z,4.10
2019-06-08T11:52:34.822Z,4.20
2019-06-08T11:53:34.825Z,3.60
2019-06-08T11:54:40.009Z,3.30
2019-06-08T11:55:38.352Z,3.70
2019-06-08T11:56:44.769Z,3.30
2019-06-08T11:57:34.768Z,3.60
2019-06-08T11:58:34.767Z,4.00
2019-06-08T11:59:34.747Z,3.30
2019-06-08T12:00:34.735Z,3.50
2019-06-08T12:01:34.725Z,3.50
2019-06-08T12:02:34.715Z,3.60
2019-06-08T12:03:34.716Z,3.50
2019-06-08T12:04:34.709Z,3.30
2019-06-08T12:05:34.694Z,3.30
2019-06-08T12:06:34.702Z,3.70
2019-06-08T12:07:34.670Z,3.70
2019-06-08T12:08:34.654Z,3.20
2019-06-08T12:09:34.650Z,3.30
2019-06-08T12:10:34.657Z,3.50
2019-06-08T12:11:34.630Z,3.60
2019-06-08T12:12:34.613Z,3.40
2019-06-08T12:13:34.606Z,3.70
2019-06-08T12:14:34.635Z,3.00
2019-06-08T12:15:34.584Z,3.10
2019-06-08T12:16:34.583Z,3.50
2019-06-08T12:17:34.566Z,3.80
2019-06-08T12:18:34.547Z,3.30
2019-06-08T12:19:34.538Z,3.70
2019-06-08T12:20:34.573Z,3.60
2019-06-08T12:21:34.515Z,3.40
2019-06-08T12:22:34.511Z,3.30
2019-06-08T12:23:34.508Z,3.20
2019-06-08T12:24:42.186Z,3.40
2019-06-08T12:25:37.758Z,3.30
2019-06-08T12:26:34.472Z,3.80
2019-06-08T12:27:48.685Z,3.80
2019-06-08T12:28:34.441Z,3.30
2019-06-08T12:29:34.434Z,3.80
2019-06-08T12:30:34.461Z,3.30
2019-06-08T12:31:34.413Z,3.30
2019-06-08T12:32:34.471Z,3.50
2019-06-08T12:33:34.393Z,3.50
2019-06-08T12:34:34.603Z,3.10
2019-06-08T12:35:34.370Z,3.40
2019-06-08T12:36:34.382Z,3.20
2019-06-08T12:37:34.349Z,3.20
2019-06-08T12:38:34.760Z,3.20
2019-06-08T12:39:34.358Z,3.60
2019-06-08T12:40:34.361Z,3.70
2019-06-08T12:41:34.334Z,3.60
2019-06-08T12:42:34.299Z,3.20
2019-06-08T12:43:34.316Z,3.30
2019-06-08T12:44:34.295Z,3.10
2019-06-08T12:45:34.275Z,3.40
2019-06-08T12:46:34.301Z,3.60
2019-06-08T12:47:34.247Z,3.20
2019-06-08T12:48:34.243Z,3.40
2019-06-08T12:49:34.239Z,3.30
2019-06-08T12:50:34.223Z,3.00
2019-06-08T12:51:34.206Z,3.50
2019-06-08T12:52:34.210Z,3.20
2019-06-08T12:53:34.192Z,3.20
2019-06-08T12:54:34.181Z,3.20
2019-06-08T12:55:34.161Z,3.30
2019-06-08T12:56:34.161Z,3.30
2019-06-08T12:57:34.182Z,3.30
2019-06-08T12:58:47.410Z,3.00
2019-06-08T12:59:34.120Z,3.30
2019-06-08T13:00:34.114Z,3.10
2019-06-08T13:01:34.099Z,3.60
2019-06-08T13:02:34.088Z,3.50
2019-06-08T13:03:34.089Z,3.80
2019-06-08T13:04:34.069Z,3.50